createdAt,value
2022-11-19T00:01:26.892Z,6.78
2022-11-19T00:03:54.730Z,6.97
2022-11-19T00:06:27.430Z,6.63
2022-11-19T00:08:55.351Z,6.60
2022-11-19T00:11:45.483Z,6.90
2022-11-19T00:14:15.534Z,6.90
2022-11-19T00:16:43.939Z,6.57
2022-11-19T00:19:12.101Z,6.75
2022-11-19T00:21:39.496Z,7.32
2022-11-19T00:24:07.170Z,7.70
2022-11-19T00:26:34.125Z,7.30
2022-11-19T00:29:01.216Z,6.80
2022-11-19T00:31:28.276Z,5.82
2022-11-19T00:33:55.315Z,7.18
2022-11-19T00:36:23.193Z,7.20
2022-11-19T00:38:50.690Z,6.72
2022-11-19T00:41:18.078Z,7.40
2022-11-19T00:43:48.361Z,7.80
2022-11-19T00:46:25.275Z,7.50
2022-11-19T00:48:56.056Z,8.07
2022-11-19T00:51:25.800Z,7.00
2022-11-19T00:53:53.114Z,7.50
2022-11-19T00:56:22.916Z,7.35
2022-11-19T00:58:50.643Z,7.32
2022-11-19T01:01:20.679Z,7.32
2022-11-19T01:03:48.668Z,7.90
2022-11-19T01:06:19.536Z,7.65
2022-11-19T01:08:52.362Z,7.80
2022-11-19T01:11:23.762Z,7.47
2022-11-19T01:13:50.843Z,7.95
2022-11-19T01:16:25.747Z,8.35
2022-11-19T01:18:53.561Z,8.05
2022-11-19T01:21:23.894Z,7.90
2022-11-19T01:23:51.418Z,8.45
2022-11-19T01:26:18.974Z,7.70
2022-11-19T01:28:46.498Z,7.75
2022-11-19T01:31:23.550Z,8.32
2022-11-19T01:33:51.170Z,8.45
2022-11-19T01:36:28.301Z,8.35
2022-11-19T01:38:56.537Z,8.07
2022-11-19T01:41:32.432Z,9.57
2022-11-19T01:46:32.704Z,9.10
2022-11-19T01:49:20.777Z,9.27
2022-11-19T01:51:58.111Z,9.23
2022-11-19T01:54:31.351Z,8.15
2022-11-19T01:57:04.310Z,8.90
2022-11-19T01:59:32.183Z,8.25
2022-11-19T02:01:59.266Z,8.07
2022-11-19T02:04:27.726Z,7.20
2022-11-19T02:06:55.371Z,8.50
2022-11-19T02:09:24.847Z,8.25
2022-11-19T02:12:28.680Z,8.25
2022-11-19T02:15:03.370Z,8.82
2022-11-19T02:17:54.991Z,10.55
2022-11-19T02:20:55.795Z,10.25
2022-11-19T02:23:46.156Z,8.57
2022-11-19T02:26:34.620Z,7.97
2022-11-19T02:29:19.115Z,7.65
2022-11-19T02:31:59.671Z,8.93
2022-11-19T02:34:39.343Z,7.60
2022-11-19T02:37:40.991Z,7.70
2022-11-19T02:40:26.699Z,8.60
2022-11-19T02:43:30.930Z,8.45
2022-11-19T02:46:14.248Z,7.75
2022-11-19T02:48:48.238Z,7.50
2022-11-19T02:51:16.718Z,7.75
2022-11-19T02:53:43.615Z,7.47
2022-11-19T02:56:35.799Z,7.55
2022-11-19T02:59:22.152Z,7.78
2022-11-19T03:02:08.562Z,7.22
2022-11-19T03:04:35.612Z,8.05
2022-11-19T03:07:13.549Z,7.45
2022-11-19T03:09:47.919Z,7.35
2022-11-19T03:12:42.987Z,8.25
2022-11-19T03:15:52.999Z,7.85
2022-11-19T03:18:43.320Z,8.10
2022-11-19T03:21:44.561Z,8.43
2022-11-19T03:24:21.691Z,8.15
2022-11-19T03:26:56.395Z,7.40
2022-11-19T03:29:27.014Z,8.25
2022-11-19T03:32:02.478Z,7.45
2022-11-19T03:34:31.792Z,8.60
2022-11-19T03:37:01.563Z,7.82
2022-11-19T03:39:29.432Z,8.85
2022-11-19T03:41:57.828Z,8.68
2022-11-19T03:44:50.935Z,7.85
2022-11-19T03:47:29.204Z,8.75
2022-11-19T03:50:10.039Z,7.47
2022-11-19T03:52:37.616Z,8.45
2022-11-19T03:55:04.876Z,8.07
2022-11-19T03:57:31.820Z,8.35
2022-11-19T03:59:58.737Z,8.50
2022-11-19T04:02:25.693Z,8.32
2022-11-19T04:04:52.559Z,8.20
2022-11-19T04:07:22.836Z,7.82
2022-11-19T04:09:50.597Z,7.40
2022-11-19T04:12:23.574Z,7.43
2022-11-19T04:14:51.625Z,7.55
2022-11-19T04:17:19.548Z,7.95
2022-11-19T04:19:47.949Z,7.43
2022-11-19T04:22:14.854Z,7.57
2022-11-19T04:24:42.146Z,8.23
2022-11-19T04:27:09.164Z,7.50
2022-11-19T04:29:36.011Z,8.02
2022-11-19T04:32:02.959Z,7.22
2022-11-19T04:34:30.285Z,7.85
2022-11-19T04:36:57.156Z,7.13
2022-11-19T04:39:24.390Z,7.10
2022-11-19T04:41:51.311Z,7.03
2022-11-19T04:44:18.277Z,7.05
2022-11-19T04:46:45.260Z,6.70
2022-11-19T04:49:12.378Z,7.57
2022-11-19T04:51:39.247Z,6.60
2022-11-19T04:54:08.619Z,7.55
2022-11-19T04:56:37.041Z,6.85
2022-11-19T04:59:04.716Z,6.57
2022-11-19T05:01:31.914Z,6.63
2022-11-19T05:03:59.129Z,7.22
2022-11-19T05:06:26.150Z,7.78
2022-11-19T05:08:53.192Z,7.32
2022-11-19T05:11:20.454Z,7.28
2022-11-19T05:13:47.433Z,7.05
2022-11-19T05:16:14.313Z,6.38
2022-11-19T05:18:41.485Z,6.68
2022-11-19T05:21:08.334Z,6.35
2022-11-19T05:23:35.341Z,7.15
2022-11-19T05:26:02.435Z,7.15
2022-11-19T05:28:38.430Z,6.82
2022-11-19T05:31:07.549Z,6.60
2022-11-19T05:33:34.824Z,7.05
2022-11-19T05:36:02.841Z,5.90
2022-11-19T05:38:30.326Z,6.38
2022-11-19T05:40:57.378Z,6.85
2022-11-19T05:43:24.337Z,6.90
2022-11-19T05:45:51.707Z,6.63
2022-11-19T05:48:18.561Z,5.95
2022-11-19T05:50:45.602Z,6.72
2022-11-19T05:53:12.700Z,6.18
2022-11-19T05:55:40.120Z,6.55
2022-11-19T05:58:06.986Z,6.28
2022-11-19T06:00:34.387Z,6.03
2022-11-19T06:03:01.270Z,6.32
2022-11-19T06:05:28.517Z,6.95
2022-11-19T06:07:55.501Z,7.20
2022-11-19T06:10:22.468Z,7.28
2022-11-19T06:12:49.326Z,8.35
2022-11-19T06:15:16.767Z,8.65
2022-11-19T06:17:43.649Z,8.70
2022-11-19T06:20:11.274Z,8.80
2022-11-19T06:22:39.213Z,7.97
2022-11-19T06:25:07.638Z,7.97
2022-11-19T06:27:34.955Z,8.30
2022-11-19T06:30:02.454Z,8.85
2022-11-19T06:32:29.309Z,8.20
2022-11-19T06:34:56.340Z,7.72
2022-11-19T06:37:24.157Z,8.05
2022-11-19T06:39:51.176Z,10.05
2022-11-19T06:42:36.101Z,8.07
2022-11-19T06:45:13.430Z,7.88
2022-11-19T06:47:42.035Z,7.07
2022-11-19T06:50:10.808Z,7.43
2022-11-19T06:52:38.314Z,7.82
2022-11-19T06:55:06.252Z,7.07
2022-11-19T06:57:33.306Z,6.82
2022-11-19T07:00:00.262Z,9.07
2022-11-19T07:02:27.808Z,7.00
2022-11-19T07:04:54.622Z,8.57
2022-11-19T07:07:21.794Z,8.07
2022-11-19T07:09:48.849Z,8.32
2022-11-19T07:12:15.862Z,8.35
2022-11-19T07:14:42.714Z,9.15
2022-11-19T07:17:10.234Z,7.65
2022-11-19T07:19:37.130Z,8.82
2022-11-19T07:22:04.242Z,8.45
2022-11-19T07:24:31.267Z,8.02
2022-11-19T07:26:58.205Z,7.78
2022-11-19T07:29:25.106Z,8.65
2022-11-19T07:31:53.540Z,8.27
2022-11-19T07:34:21.123Z,8.25
2022-11-19T07:36:49.401Z,7.80
2022-11-19T07:39:17.177Z,8.68
2022-11-19T07:42:02.581Z,8.23
2022-11-19T07:44:29.743Z,8.30
2022-11-19T07:46:56.740Z,8.27
2022-11-19T07:49:24.909Z,7.97
2022-11-19T07:51:52.645Z,7.55
2022-11-19T07:54:19.586Z,7.70
2022-11-19T07:56:46.775Z,7.72
2022-11-19T07:59:14.051Z,7.22
2022-11-19T08:01:41.011Z,7.30
2022-11-19T08:04:08.275Z,7.20
2022-11-19T08:06:35.459Z,7.13
2022-11-19T08:09:04.234Z,6.40
2022-11-19T08:11:31.680Z,7.13
2022-11-19T08:14:01.669Z,6.72
2022-11-19T08:16:47.511Z,6.20
2022-11-19T08:19:16.599Z,5.82
2022-11-19T08:21:46.314Z,6.10
2022-11-19T08:24:15.918Z,5.63
2022-11-19T08:26:43.898Z,5.57
2022-11-19T08:29:16.441Z,5.90
2022-11-19T08:31:46.429Z,4.82
2022-11-19T08:34:14.960Z,5.40
2022-11-19T08:36:41.914Z,5.10
2022-11-19T08:39:09.037Z,4.88
2022-11-19T08:41:54.812Z,5.28
2022-11-19T08:44:22.738Z,5.35
2022-11-19T08:46:50.556Z,5.93
2022-11-19T08:49:17.612Z,5.30
2022-11-19T08:51:44.717Z,4.97
2022-11-19T08:54:13.145Z,4.82
2022-11-19T08:56:40.042Z,4.57
2022-11-19T08:59:07.337Z,4.15
2022-11-19T09:01:35.272Z,4.82
2022-11-19T09:04:02.419Z,4.63
2022-11-19T09:06:29.432Z,4.60
2022-11-19T09:08:56.412Z,4.60
2022-11-19T09:11:23.447Z,4.57
2022-11-19T09:13:50.844Z,4.53
2022-11-19T09:16:17.875Z,5.40
2022-11-19T09:18:44.887Z,4.82
2022-11-19T09:21:12.578Z,4.47
2022-11-19T09:23:41.461Z,4.63
2022-11-19T09:26:17.747Z,4.07
2022-11-19T09:31:18.571Z,3.60
2022-11-19T09:33:49.621Z,4.22
2022-11-19T09:36:18.671Z,4.13
2022-11-19T09:38:46.878Z,4.25
2022-11-19T09:41:54.351Z,4.03
2022-11-19T09:44:46.278Z,3.28
2022-11-19T09:47:34.256Z,3.45
2022-11-19T09:50:31.059Z,3.20
2022-11-19T09:53:11.414Z,2.80
2022-11-19T09:55:45.774Z,2.60
2022-11-19T09:58:45.785Z,2.90
2022-11-19T10:01:17.734Z,3.35
2022-11-19T10:03:52.200Z,2.78
2022-11-19T10:06:30.271Z,2.75
2022-11-19T10:09:12.312Z,2.78
2022-11-19T10:12:00.869Z,2.90
2022-11-19T10:14:53.910Z,3.00
2022-11-19T10:17:42.007Z,2.90
2022-11-19T10:20:47.975Z,2.30
2022-11-19T10:23:44.974Z,2.38
2022-11-19T10:26:18.957Z,2.70
2022-11-19T10:28:57.133Z,2.67
2022-11-19T10:31:39.887Z,2.40
2022-11-19T10:34:12.434Z,2.35
2022-11-19T10:36:49.513Z,2.83
2022-11-19T10:39:39.892Z,2.38
2022-11-19T10:42:25.864Z,2.05
2022-11-19T10:45:03.759Z,2.38
2022-11-19T10:48:09.742Z,2.50
2022-11-19T10:50:36.867Z,2.17
2022-11-19T10:53:29.615Z,2.75
2022-11-19T10:56:01.847Z,2.33
2022-11-19T10:58:56.428Z,1.80
2022-11-19T11:01:34.454Z,2.55
2022-11-19T11:04:29.912Z,1.98
2022-11-19T11:07:03.887Z,2.35
2022-11-19T11:09:33.799Z,2.53
2022-11-19T11:12:57.428Z,2.28
2022-11-19T11:15:27.953Z,1.75
2022-11-19T11:18:08.067Z,1.92
2022-11-19T11:20:38.137Z,2.00
2022-11-19T11:23:12.287Z,2.20
2022-11-19T11:25:40.356Z,2.83
2022-11-19T11:28:20.293Z,3.30
2022-11-19T11:31:28.660Z,2.58
2022-11-19T11:33:57.457Z,2.67
2022-11-19T11:36:31.075Z,2.60
2022-11-19T11:39:01.118Z,2.55
2022-11-19T11:44:34.986Z,2.53
2022-11-19T11:47:23.869Z,2.47
2022-11-19T11:50:07.785Z,2.55
2022-11-19T11:52:47.972Z,3.05
2022-11-19T11:55:24.107Z,3.00
2022-11-19T11:57:53.987Z,3.47
2022-11-19T12:00:47.040Z,3.30
2022-11-19T12:03:19.005Z,2.97
2022-11-19T12:06:16.881Z,2.92
2022-11-19T12:09:00.391Z,3.40
2022-11-19T12:11:54.182Z,3.17
2022-11-19T12:15:10.064Z,3.20
2022-11-19T12:17:50.027Z,3.13
2022-11-19T12:20:44.319Z,3.28
2022-11-19T12:23:42.723Z,3.40
2022-11-19T12:26:57.655Z,3.47
2022-11-19T12:29:47.224Z,3.00
2022-11-19T12:32:29.248Z,3.22
2022-11-19T12:35:24.108Z,3.22
2022-11-19T12:38:40.502Z,3.47
2022-11-19T12:41:46.222Z,4.45
2022-11-19T12:44:27.876Z,4.75
2022-11-19T12:47:39.526Z,3.90
2022-11-19T12:50:31.711Z,3.90
2022-11-19T12:53:14.830Z,4.30
2022-11-19T12:55:47.367Z,3.67
2022-11-19T12:58:23.309Z,3.83
2022-11-19T13:00:59.135Z,4.05
2022-11-19T13:03:46.382Z,3.72
2022-11-19T13:07:01.903Z,3.75
2022-11-19T13:09:45.141Z,3.70
2022-11-19T13:12:21.705Z,3.80
2022-11-19T13:15:01.011Z,3.97
2022-11-19T13:17:33.516Z,3.63
2022-11-19T13:20:16.334Z,3.47
2022-11-19T13:22:47.590Z,3.75
2022-11-19T13:25:25.215Z,3.60
2022-11-19T13:27:55.401Z,3.92
2022-11-19T13:30:26.634Z,3.92
2022-11-19T13:33:52.841Z,3.80
2022-11-19T13:36:33.233Z,3.65
2022-11-19T13:39:16.529Z,3.80
2022-11-19T13:42:08.304Z,3.65
2022-11-19T13:44:41.012Z,4.22
2022-11-19T13:47:19.964Z,4.53
2022-11-19T13:49:54.291Z,4.00
2022-11-19T13:52:44.119Z,4.35
2022-11-19T13:55:35.135Z,3.88
2022-11-19T13:58:14.307Z,4.00
2022-11-19T14:00:57.925Z,4.65
2022-11-19T14:04:06.493Z,4.53
2022-11-19T14:06:48.032Z,4.78
2022-11-19T14:09:51.766Z,4.43
2022-11-19T14:12:57.152Z,4.78
2022-11-19T14:19:04.738Z,4.75
2022-11-19T14:21:49.909Z,5.03
2022-11-19T14:24:44.878Z,4.90
2022-11-19T14:27:27.822Z,4.50
2022-11-19T14:30:06.615Z,5.57
2022-11-19T14:32:46.417Z,4.43
2022-11-19T14:35:26.188Z,4.47
2022-11-19T14:38:06.489Z,4.65
2022-11-19T14:40:34.526Z,4.70
2022-11-19T14:43:19.827Z,4.35
2022-11-19T14:46:04.759Z,4.53
2022-11-19T14:48:35.787Z,4.75
2022-11-19T14:51:10.971Z,5.05
2022-11-19T14:53:49.047Z,5.05
2022-11-19T14:56:20.795Z,4.82
2022-11-19T14:59:14.900Z,4.97
2022-11-19T15:02:18.926Z,5.90
2022-11-19T15:05:01.618Z,5.80
2022-11-19T15:07:37.632Z,4.70
2022-11-19T15:10:23.288Z,4.82
2022-11-19T15:13:13.090Z,5.03
2022-11-19T15:15:43.919Z,5.22
2022-11-19T15:18:45.237Z,4.72
2022-11-19T15:21:42.498Z,5.80
2022-11-19T15:24:36.439Z,5.80
2022-11-19T15:27:34.425Z,5.78
2022-11-19T15:30:25.850Z,5.57
2022-11-19T15:33:17.861Z,5.32
2022-11-19T15:36:33.510Z,5.70
2022-11-19T15:39:14.206Z,4.82
2022-11-19T15:42:00.477Z,4.97
2022-11-19T15:44:37.105Z,4.88
2022-11-19T15:47:26.200Z,5.10
2022-11-19T15:49:53.971Z,5.97
2022-11-19T15:52:28.110Z,6.00
2022-11-19T15:55:20.296Z,5.72
2022-11-19T15:57:52.336Z,5.20
2022-11-19T16:00:23.286Z,5.68
2022-11-19T16:02:52.201Z,5.45
2022-11-19T16:05:24.682Z,5.50
2022-11-19T16:07:52.981Z,5.35
2022-11-19T16:10:34.112Z,5.03
2022-11-19T16:13:43.378Z,5.95
2022-11-19T16:16:47.983Z,5.22
2022-11-19T16:19:17.291Z,5.05
2022-11-19T16:21:49.070Z,5.70
2022-11-19T16:24:38.465Z,5.40
2022-11-19T16:27:13.308Z,5.75
2022-11-19T16:29:42.846Z,5.60
2022-11-19T16:32:17.465Z,5.82
2022-11-19T16:34:49.576Z,6.15
2022-11-19T16:37:20.856Z,5.80
2022-11-19T16:39:53.134Z,6.00
2022-11-19T16:42:28.227Z,4.97
2022-11-19T16:45:30.700Z,6.00
2022-11-19T16:48:01.160Z,6.60
2022-11-19T16:50:43.733Z,5.65
2022-11-19T16:53:12.482Z,5.35
2022-11-19T16:55:42.963Z,5.93
2022-11-19T16:58:09.951Z,6.55
2022-11-19T17:00:38.027Z,5.80
2022-11-19T17:03:27.787Z,5.93
2022-11-19T17:05:57.992Z,6.57
2022-11-19T17:08:35.209Z,6.57
2022-11-19T17:12:08.168Z,5.97
2022-11-19T17:14:35.172Z,6.22
2022-11-19T17:17:03.575Z,5.97
2022-11-19T17:19:36.265Z,6.50
2022-11-19T17:22:17.744Z,6.65
2022-11-19T17:24:46.173Z,6.72
2022-11-19T17:27:35.467Z,5.90
2022-11-19T17:30:11.071Z,6.35
2022-11-19T17:32:46.828Z,6.47
2022-11-19T17:35:42.690Z,5.97
2022-11-19T17:38:32.547Z,6.63
2022-11-19T17:41:04.858Z,6.30
2022-11-19T17:43:54.267Z,5.78
2022-11-19T17:46:26.205Z,6.82
2022-11-19T17:48:53.877Z,6.47
2022-11-19T17:51:25.637Z,6.18
2022-11-19T17:53:53.351Z,6.90
2022-11-19T17:56:22.600Z,6.75
2022-11-19T17:58:49.635Z,6.65
2022-11-19T18:01:17.744Z,6.18
2022-11-19T18:03:44.915Z,7.00
2022-11-19T18:06:14.459Z,7.05
2022-11-19T18:08:42.367Z,7.00
2022-11-19T18:11:22.000Z,7.63
2022-11-19T18:13:55.075Z,7.28
2022-11-19T18:16:25.627Z,6.72
2022-11-19T18:18:53.111Z,6.93
2022-11-19T18:21:23.037Z,6.72
2022-11-19T18:23:51.649Z,6.75
2022-11-19T18:26:22.350Z,6.45
2022-11-19T18:28:49.924Z,6.45
2022-11-19T18:31:27.064Z,6.43
2022-11-19T18:33:56.241Z,7.07
2022-11-19T18:36:25.081Z,6.10
2022-11-19T18:38:52.876Z,6.75
2022-11-19T18:41:20.009Z,6.82
2022-11-19T18:44:06.146Z,6.30
2022-11-19T18:46:34.475Z,6.25
2022-11-19T18:49:01.346Z,7.18
2022-11-19T18:51:31.192Z,6.90
2022-11-19T18:53:58.376Z,6.43
2022-11-19T18:56:25.475Z,7.10
2022-11-19T18:58:52.803Z,7.22
2022-11-19T19:01:20.174Z,7.40
2022-11-19T19:03:47.423Z,7.40
2022-11-19T19:06:15.529Z,7.35
2022-11-19T19:08:42.656Z,6.47
2022-11-19T19:11:28.099Z,6.53
2022-11-19T19:13:55.411Z,6.53
2022-11-19T19:16:23.125Z,7.20
2022-11-19T19:18:50.149Z,6.50
2022-11-19T19:21:21.097Z,6.93
2022-11-19T19:23:48.721Z,6.65
2022-11-19T19:26:17.916Z,7.78
2022-11-19T19:28:54.198Z,7.03
2022-11-19T19:33:49.869Z,6.57
2022-11-19T19:36:18.510Z,6.95
2022-11-19T19:38:45.983Z,6.57
2022-11-19T19:41:25.771Z,7.25
2022-11-19T19:43:54.922Z,6.95
2022-11-19T19:46:23.865Z,6.85
2022-11-19T19:48:55.892Z,7.07
2022-11-19T19:51:26.083Z,7.30
2022-11-19T19:53:54.018Z,7.75
2022-11-19T19:56:23.785Z,7.40
2022-11-19T19:58:52.058Z,7.35
2022-11-19T20:01:30.861Z,7.07
2022-11-19T20:04:06.697Z,7.60
2022-11-19T20:06:35.932Z,6.78
2022-11-19T20:09:08.388Z,7.00
2022-11-19T20:11:37.200Z,6.63
2022-11-19T20:14:04.814Z,6.78
2022-11-19T20:16:33.447Z,7.35
2022-11-19T20:19:01.563Z,7.53
2022-11-19T20:21:34.161Z,6.75
2022-11-19T20:24:04.916Z,7.68
2022-11-19T20:26:34.409Z,6.47
2022-11-19T20:29:04.803Z,6.75
2022-11-19T20:31:33.966Z,6.68
2022-11-19T20:34:03.759Z,6.85
2022-11-19T20:36:33.571Z,7.60
2022-11-19T20:39:01.123Z,6.88
2022-11-19T20:41:47.234Z,7.47
2022-11-19T20:44:23.528Z,7.40
2022-11-19T20:46:56.698Z,6.70
2022-11-19T20:49:27.630Z,6.63
2022-11-19T20:51:55.524Z,7.68
2022-11-19T20:54:23.981Z,7.68
2022-11-19T20:56:52.750Z,6.93
2022-11-19T20:59:20.613Z,8.32
2022-11-19T21:01:52.796Z,7.38
2022-11-19T21:04:20.917Z,7.57
2022-11-19T21:06:49.673Z,8.77
2022-11-19T21:09:17.287Z,8.68
2022-11-19T21:11:44.245Z,8.15
2022-11-19T21:14:11.838Z,8.32
2022-11-19T21:16:38.931Z,8.18
2022-11-19T21:19:05.942Z,8.35
2022-11-19T21:21:32.832Z,8.18
2022-11-19T21:24:00.273Z,7.15
2022-11-19T21:26:28.804Z,9.50
2022-11-19T21:28:58.762Z,8.80
2022-11-19T21:31:45.571Z,7.72
2022-11-19T21:34:17.674Z,8.55
2022-11-19T21:36:46.868Z,9.80
2022-11-19T21:39:16.356Z,9.35
2022-11-19T21:41:44.104Z,8.70
2022-11-19T21:44:13.332Z,8.60
2022-11-19T21:46:43.780Z,8.32
2022-11-19T21:49:10.644Z,8.70
2022-11-19T21:51:37.869Z,8.93
2022-11-19T21:54:05.001Z,9.50
2022-11-19T21:56:38.218Z,8.85
2022-11-19T21:59:07.248Z,9.35
2022-11-19T22:01:34.260Z,9.55
2022-11-19T22:04:01.278Z,9.20
2022-11-19T22:06:28.249Z,9.13
2022-11-19T22:08:55.363Z,9.05
2022-11-19T22:11:31.880Z,9.52
2022-11-19T22:14:02.198Z,9.13
2022-11-19T22:16:32.274Z,8.90
2022-11-19T22:18:59.290Z,9.57
2022-11-19T22:21:27.504Z,9.05
2022-11-19T22:23:55.148Z,9.82
2022-11-19T22:26:22.098Z,9.70
2022-11-19T22:28:49.329Z,9.18
2022-11-19T22:31:16.327Z,9.18
2022-11-19T22:33:43.323Z,9.45
2022-11-19T22:36:11.618Z,9.45
2022-11-19T22:38:39.203Z,9.75
2022-11-19T22:41:19.127Z,10.18
2022-11-19T22:43:46.592Z,9.98
2022-11-19T22:46:14.969Z,10.07
2022-11-19T22:48:42.552Z,9.85
2022-11-19T22:51:16.993Z,9.57
2022-11-19T22:53:44.415Z,9.18
2022-11-19T22:56:14.337Z,9.48
2022-11-19T22:58:42.024Z,10.05
2022-11-19T23:01:21.902Z,9.80
2022-11-19T23:03:49.635Z,8.88
2022-11-19T23:06:16.659Z,9.40
2022-11-19T23:08:45.056Z,9.35
2022-11-19T23:11:14.633Z,9.38
2022-11-19T23:13:44.089Z,9.63
2022-11-19T23:16:20.626Z,9.50
2022-11-19T23:18:52.793Z,9.70
2022-11-19T23:21:24.110Z,9.65
2022-11-19T23:23:51.672Z,8.82
2022-11-19T23:26:22.129Z,9.57
2022-11-19T23:28:49.787Z,9.27
2022-11-19T23:31:23.258Z,8.90
2022-11-19T23:33:55.995Z,10.48
2022-11-19T23:36:48.811Z,8.32
2022-11-19T23:39:17.837Z,10.15
2022-11-19T23:41:45.114Z,9.38
2022-11-19T23:44:12.378Z,8.90
2022-11-19T23:46:39.908Z,9.45
2022-11-19T23:49:07.087Z,9.02
2022-11-19T23:51:38.380Z,9.50
2022-11-19T23:54:07.165Z,10.30
2022-11-19T23:56:35.923Z,9.27
2022-11-19T23:59:05.264Z,9.18
